createdAt,value
2019-02-18T00:00:09.921Z,9.19
2019-02-18T00:01:09.853Z,9.22
2019-02-18T00:02:10.646Z,9.23
2019-02-18T00:03:09.846Z,9.22
2019-02-18T00:04:09.842Z,9.22
2019-02-18T00:05:09.818Z,9.14
2019-02-18T00:06:09.859Z,9.10
2019-02-18T00:07:14.478Z,9.08
2019-02-18T00:08:10.772Z,9.10
2019-02-18T00:09:09.800Z,9.16
2019-02-18T00:10:09.821Z,8.99
2019-02-18T00:11:09.747Z,8.99
2019-02-18T00:12:09.800Z,9.04
2019-02-18T00:13:09.730Z,8.94
2019-02-18T00:14:09.756Z,8.92
2019-02-18T00:15:09.696Z,8.91
2019-02-18T00:16:09.675Z,8.85
2019-02-18T00:17:09.655Z,8.92
2019-02-18T00:18:09.683Z,8.79
2019-02-18T00:19:09.643Z,8.82
2019-02-18T00:20:09.622Z,8.84
2019-02-18T00:21:09.624Z,8.81
2019-02-18T00:22:09.614Z,8.74
2019-02-18T00:23:09.595Z,8.78
2019-02-18T00:24:09.614Z,8.79
2019-02-18T00:25:09.570Z,8.71
2019-02-18T00:26:09.560Z,8.81
2019-02-18T00:27:09.555Z,8.78
2019-02-18T00:28:09.548Z,8.70
2019-02-18T00:29:09.565Z,8.73
2019-02-18T00:30:09.517Z,8.58
2019-02-18T00:31:09.516Z,8.53
2019-02-18T00:32:09.497Z,8.51
2019-02-18T00:33:09.486Z,8.34
2019-02-18T00:34:09.482Z,8.27
2019-02-18T00:35:09.493Z,8.27
2019-02-18T00:36:09.464Z,8.26
2019-02-18T00:37:09.449Z,8.28
2019-02-18T00:38:09.432Z,8.23
2019-02-18T00:39:09.422Z,8.18
2019-02-18T00:40:09.407Z,8.13
2019-02-18T00:41:09.445Z,8.28
2019-02-18T00:42:09.398Z,8.27
2019-02-18T00:43:09.379Z,8.23
2019-02-18T00:44:09.367Z,8.33
2019-02-18T00:45:09.353Z,8.28
2019-02-18T00:46:09.342Z,8.33
2019-02-18T00:47:09.369Z,8.42
2019-02-18T00:48:09.335Z,8.33
2019-02-18T00:49:09.329Z,8.37
2019-02-18T00:50:09.309Z,8.30
2019-02-18T00:51:09.313Z,8.28
2019-02-18T00:52:09.385Z,8.36
2019-02-18T00:53:09.275Z,8.31
2019-02-18T00:54:09.263Z,8.28
2019-02-18T00:55:09.251Z,8.30
2019-02-18T00:56:09.240Z,8.23
2019-02-18T00:57:09.247Z,8.27
2019-02-18T00:58:09.213Z,8.27
2019-02-18T00:59:09.224Z,8.24
2019-02-18T01:00:09.202Z,8.27
2019-02-18T01:01:09.231Z,8.23
2019-02-18T01:02:09.176Z,8.20
2019-02-18T01:03:09.157Z,8.19
2019-02-18T01:04:09.148Z,8.16
2019-02-18T01:05:09.134Z,8.15
2019-02-18T01:06:09.122Z,8.15
2019-02-18T01:07:09.145Z,8.10
2019-02-18T01:08:09.105Z,8.13
2019-02-18T01:09:09.095Z,8.10
2019-02-18T01:10:09.086Z,8.10
2019-02-18T01:11:09.070Z,8.16
2019-02-18T01:12:09.088Z,8.13
2019-02-18T01:13:09.054Z,8.18
2019-02-18T01:14:09.039Z,8.12
2019-02-18T01:15:09.028Z,8.12
2019-02-18T01:16:09.028Z,8.15
2019-02-18T01:17:09.007Z,8.10
2019-02-18T01:18:09.026Z,8.10
2019-02-18T01:19:08.995Z,8.08
2019-02-18T01:20:08.978Z,8.12
2019-02-18T01:21:08.967Z,8.10
2019-02-18T01:22:08.957Z,8.06
2019-02-18T01:23:08.964Z,8.09
2019-02-18T01:24:08.955Z,8.13
2019-02-18T01:25:08.920Z,8.10
2019-02-18T01:26:08.910Z,8.09
2019-02-18T01:27:08.903Z,8.08
2019-02-18T01:28:08.900Z,8.10
2019-02-18T01:29:08.909Z,8.10
2019-02-18T01:30:08.866Z,8.13
2019-02-18T01:31:08.864Z,8.16
2019-02-18T01:32:08.852Z,8.12
2019-02-18T01:33:08.840Z,8.09
2019-02-18T01:34:08.865Z,8.06
2019-02-18T01:35:08.812Z,8.01
2019-02-18T01:36:08.803Z,8.05
2019-02-18T01:37:08.792Z,8.03
2019-02-18T01:38:08.781Z,8.00
2019-02-18T01:39:08.782Z,8.03
2019-02-18T01:40:08.796Z,8.05
2019-02-18T01:41:08.771Z,8.05
2019-02-18T01:42:08.742Z,8.01
2019-02-18T01:43:08.788Z,8.08
2019-02-18T01:44:08.717Z,8.05
2019-02-18T01:45:08.728Z,8.10
2019-02-18T01:46:08.725Z,8.06
2019-02-18T01:47:08.692Z,8.00
2019-02-18T01:48:08.767Z,8.05
2019-02-18T01:49:08.668Z,8.05
2019-02-18T01:50:08.651Z,7.98
2019-02-18T01:51:08.683Z,8.01
2019-02-18T01:52:08.645Z,8.00
2019-02-18T01:53:08.625Z,7.95
2019-02-18T01:54:08.614Z,8.00
2019-02-18T01:55:08.602Z,7.95
2019-02-18T01:56:08.610Z,7.94
2019-02-18T01:57:08.608Z,7.88
2019-02-18T01:58:08.570Z,7.90
2019-02-18T01:59:08.570Z,7.94
2019-02-18T02:00:08.554Z,7.95
2019-02-18T02:01:08.537Z,7.95
2019-02-18T02:02:08.549Z,7.90
2019-02-18T02:03:08.520Z,7.98
2019-02-18T02:04:08.512Z,7.95
2019-02-18T02:05:08.498Z,8.03
2019-02-18T02:06:08.512Z,7.98
2019-02-18T02:07:08.468Z,7.94
2019-02-18T02:08:08.468Z,8.00
2019-02-18T02:09:08.449Z,7.97
2019-02-18T02:10:08.450Z,7.83
2019-02-18T02:11:08.473Z,7.93
2019-02-18T02:12:08.427Z,7.88
2019-02-18T02:13:08.411Z,7.83
2019-02-18T02:14:08.426Z,7.77
2019-02-18T02:15:08.384Z,7.75
2019-02-18T02:16:08.377Z,7.73
2019-02-18T02:17:08.411Z,7.72
2019-02-18T02:18:08.361Z,7.75
2019-02-18T02:19:08.359Z,7.70
2019-02-18T02:20:08.391Z,7.75
2019-02-18T02:21:08.324Z,7.69
2019-02-18T02:22:08.314Z,7.75
2019-02-18T02:23:08.328Z,7.69
2019-02-18T02:24:08.298Z,7.67
2019-02-18T02:25:08.316Z,7.80
2019-02-18T02:26:08.274Z,7.83
2019-02-18T02:27:08.257Z,7.77
2019-02-18T02:28:08.252Z,7.83
2019-02-18T02:29:08.238Z,7.82
2019-02-18T02:30:08.230Z,7.80
2019-02-18T02:31:08.251Z,7.77
2019-02-18T02:32:08.231Z,7.82
2019-02-18T02:33:08.194Z,7.79
2019-02-18T02:34:08.189Z,7.79
2019-02-18T02:35:08.175Z,7.80
2019-02-18T02:36:08.165Z,7.85
2019-02-18T02:37:08.184Z,7.79
2019-02-18T02:38:08.324Z,7.80
2019-02-18T02:39:08.152Z,7.80
2019-02-18T02:40:08.120Z,7.80
2019-02-18T02:41:08.106Z,7.77
2019-02-18T02:42:08.874Z,7.73
2019-02-18T02:43:08.095Z,7.73
2019-02-18T02:44:08.102Z,7.75
2019-02-18T02:45:08.080Z,7.72
2019-02-18T02:46:08.059Z,7.70
2019-02-18T02:47:08.050Z,7.77
2019-02-18T02:48:08.036Z,7.75
2019-02-18T02:49:08.060Z,7.73
2019-02-18T02:50:08.041Z,7.72
2019-02-18T02:51:08.011Z,7.60
2019-02-18T02:52:07.989Z,7.69
2019-02-18T02:53:07.976Z,7.50
2019-02-18T02:54:07.988Z,7.58
2019-02-18T02:55:07.986Z,7.51
2019-02-18T02:56:07.950Z,7.53
2019-02-18T02:57:07.938Z,7.61
2019-02-18T02:58:07.930Z,7.42
2019-02-18T02:59:07.943Z,7.45
2019-02-18T03:00:07.929Z,7.47
2019-02-18T03:01:07.903Z,7.42
2019-02-18T03:02:07.895Z,7.57
2019-02-18T03:03:07.875Z,7.56
2019-02-18T03:04:07.871Z,7.56
2019-02-18T03:05:07.882Z,7.58
2019-02-18T03:06:07.836Z,7.54
2019-02-18T03:07:07.832Z,7.48
2019-02-18T03:08:19.537Z,7.51
2019-02-18T03:09:08.820Z,7.66
2019-02-18T03:10:07.835Z,7.56
2019-02-18T03:11:07.783Z,7.53
2019-02-18T03:12:07.770Z,7.54
2019-02-18T03:13:07.761Z,7.43
2019-02-18T03:14:07.748Z,7.51
2019-02-18T03:15:07.777Z,7.54
2019-02-18T03:16:07.745Z,7.47
2019-02-18T03:17:07.722Z,7.40
2019-02-18T03:18:07.711Z,7.51
2019-02-18T03:19:07.700Z,7.43
2019-02-18T03:20:07.696Z,7.45
2019-02-18T03:21:07.737Z,7.40
2019-02-18T03:22:07.672Z,7.48
2019-02-18T03:23:07.653Z,7.42
2019-02-18T03:24:07.645Z,7.43
2019-02-18T03:25:07.633Z,7.39
2019-02-18T03:26:07.627Z,7.39
2019-02-18T03:27:07.648Z,7.38
2019-02-18T03:28:07.610Z,7.33
2019-02-18T03:29:07.594Z,7.38
2019-02-18T03:30:07.591Z,7.43
2019-02-18T03:31:07.574Z,7.43
2019-02-18T03:32:07.580Z,7.38
2019-02-18T03:33:07.544Z,7.45
2019-02-18T03:34:07.546Z,7.42
2019-02-18T03:35:07.528Z,7.42
2019-02-18T03:36:07.518Z,7.40
2019-02-18T03:37:07.660Z,7.39
2019-02-18T03:38:07.496Z,7.43
2019-02-18T03:39:07.484Z,7.35
2019-02-18T03:40:07.484Z,7.43
2019-02-18T03:41:07.463Z,7.40
2019-02-18T03:42:07.484Z,7.45
2019-02-18T03:43:07.438Z,7.39
2019-02-18T03:44:07.427Z,7.36
2019-02-18T03:45:07.449Z,7.39
2019-02-18T03:46:07.411Z,7.39
2019-02-18T03:47:07.401Z,7.35
2019-02-18T03:48:07.411Z,7.31
2019-02-18T03:49:07.379Z,7.36
2019-02-18T03:50:07.367Z,7.33
2019-02-18T03:51:07.348Z,7.38
2019-02-18T03:52:07.337Z,7.39
2019-02-18T03:53:07.361Z,7.43
2019-02-18T03:54:07.325Z,7.42
2019-02-18T03:55:07.322Z,7.38
2019-02-18T03:56:07.297Z,7.45
2019-02-18T03:57:07.308Z,7.35
2019-02-18T03:58:07.276Z,7.31
2019-02-18T03:59:07.269Z,7.38
2019-02-18T04:00:07.284Z,7.39
2019-02-18T04:01:07.257Z,7.39
2019-02-18T04:02:07.243Z,7.38
2019-02-18T04:03:07.249Z,7.43
2019-02-18T04:04:07.208Z,7.42
2019-02-18T04:05:07.202Z,7.39
2019-02-18T04:06:07.186Z,7.48
2019-02-18T04:07:07.230Z,7.40
2019-02-18T04:08:07.173Z,7.43
2019-02-18T04:09:07.161Z,7.47
2019-02-18T04:10:07.143Z,7.43
2019-02-18T04:11:07.138Z,7.47
2019-02-18T04:12:07.139Z,7.54
2019-02-18T04:13:07.160Z,7.39
2019-02-18T04:14:07.106Z,7.43
2019-02-18T04:15:07.095Z,7.43
2019-02-18T04:16:07.078Z,7.42
2019-02-18T04:17:07.069Z,7.45
2019-02-18T04:18:07.060Z,7.42
2019-02-18T04:19:07.083Z,7.35
2019-02-18T04:20:07.051Z,7.35
2019-02-18T04:21:07.029Z,7.24
2019-02-18T04:22:07.023Z,7.21
2019-02-18T04:23:07.032Z,7.15
2019-02-18T04:24:06.992Z,7.21
2019-02-18T04:25:07.019Z,7.11
2019-02-18T04:26:06.974Z,7.15
2019-02-18T04:27:08.051Z,7.11
2019-02-18T04:28:06.948Z,7.00
2019-02-18T04:29:06.938Z,6.99
2019-02-18T04:30:06.960Z,7.03
2019-02-18T04:31:06.932Z,7.05
2019-02-18T04:32:06.910Z,6.95
2019-02-18T04:33:06.912Z,7.02
2019-02-18T04:34:06.893Z,7.00
2019-02-18T04:35:06.874Z,6.95
2019-02-18T04:36:06.898Z,6.89
2019-02-18T04:37:06.851Z,6.89
2019-02-18T04:38:06.843Z,6.87
2019-02-18T04:39:06.838Z,6.88
2019-02-18T04:40:06.836Z,6.99
2019-02-18T04:41:06.806Z,6.89
2019-02-18T04:42:06.820Z,6.99
2019-02-18T04:43:06.798Z,6.93
2019-02-18T04:44:06.809Z,6.81
2019-02-18T04:45:06.776Z,6.84
2019-02-18T04:46:06.814Z,6.82
2019-02-18T04:47:06.752Z,6.88
2019-02-18T04:48:06.749Z,6.88
2019-02-18T04:49:06.719Z,6.78
2019-02-18T04:50:06.709Z,6.81
2019-02-18T04:51:06.714Z,6.81
2019-02-18T04:52:06.721Z,6.82
2019-02-18T04:53:06.706Z,6.77
2019-02-18T04:54:06.707Z,6.69
2019-02-18T04:55:06.668Z,6.69
2019-02-18T04:56:06.648Z,6.66
2019-02-18T04:57:06.664Z,6.79
2019-02-18T04:58:06.633Z,6.70
2019-02-18T04:59:06.630Z,6.69
2019-02-18T05:00:08.527Z,6.69
2019-02-18T05:01:06.590Z,6.75
2019-02-18T05:02:06.652Z,6.72
2019-02-18T05:03:06.590Z,6.79
2019-02-18T05:04:06.564Z,6.75
2019-02-18T05:05:06.552Z,6.69
2019-02-18T05:06:06.549Z,6.74
2019-02-18T05:07:06.531Z,6.67
2019-02-18T05:08:06.541Z,6.79
2019-02-18T05:09:06.511Z,6.78
2019-02-18T05:10:06.494Z,6.75
2019-02-18T05:11:06.494Z,6.81
2019-02-18T05:12:06.515Z,6.79
2019-02-18T05:13:06.468Z,6.85
2019-02-18T05:14:06.457Z,6.88
2019-02-18T05:15:06.470Z,6.87
2019-02-18T05:16:06.437Z,6.84
2019-02-18T05:17:06.532Z,6.79
2019-02-18T05:18:06.440Z,6.81
2019-02-18T05:19:06.420Z,6.75
2019-02-18T05:20:06.418Z,6.78
2019-02-18T05:21:06.380Z,6.79
2019-02-18T05:22:06.368Z,6.77
2019-02-18T05:23:06.386Z,6.79
2019-02-18T05:24:06.382Z,6.70
2019-02-18T05:25:06.346Z,6.70
2019-02-18T05:26:06.332Z,6.67
2019-02-18T05:27:06.314Z,6.75
2019-02-18T05:28:14.367Z,6.72
2019-02-18T05:29:06.292Z,6.62
2019-02-18T05:30:06.314Z,6.64
2019-02-18T05:31:06.274Z,6.70
2019-02-18T05:32:06.271Z,6.64
2019-02-18T05:33:06.254Z,6.56
2019-02-18T05:34:06.246Z,6.60
2019-02-18T05:35:06.264Z,6.63
2019-02-18T05:36:06.223Z,6.63
2019-02-18T05:37:06.207Z,6.62
2019-02-18T05:38:06.195Z,6.62
2019-02-18T05:39:16.969Z,6.63
2019-02-18T05:40:07.205Z,6.67
2019-02-18T05:41:06.181Z,6.67
2019-02-18T05:42:06.164Z,6.66
2019-02-18T05:43:06.142Z,6.63
2019-02-18T05:44:06.136Z,6.57
2019-02-18T05:45:06.184Z,6.52
2019-02-18T05:46:08.564Z,6.49
2019-02-18T05:47:06.107Z,6.59
2019-02-18T05:48:06.101Z,6.35
2019-02-18T05:49:06.078Z,6.38
2019-02-18T05:50:06.069Z,6.38
2019-02-18T05:51:06.089Z,6.35
2019-02-18T05:52:06.053Z,6.35
2019-02-18T05:53:06.037Z,6.44
2019-02-18T05:54:06.024Z,6.42
2019-02-18T05:55:06.036Z,6.49
2019-02-18T05:56:06.074Z,6.41
2019-02-18T05:57:06.003Z,6.45
2019-02-18T05:58:05.988Z,6.48
2019-02-18T05:59:05.971Z,6.63
2019-02-18T06:00:05.964Z,6.57
2019-02-18T06:01:05.962Z,6.62
2019-02-18T06:02:06.004Z,6.57
2019-02-18T06:03:05.939Z,6.59
2019-02-18T06:04:05.926Z,6.56
2019-02-18T06:05:05.911Z,6.54
2019-02-18T06:06:05.898Z,6.56
2019-02-18T06:07:05.917Z,6.56
2019-02-18T06:08:05.878Z,6.60
2019-02-18T06:09:05.877Z,6.54
2019-02-18T06:10:05.863Z,6.49
2019-02-18T06:11:05.852Z,6.56
2019-02-18T06:12:05.844Z,6.56
2019-02-18T06:13:05.851Z,6.59
2019-02-18T06:14:05.819Z,6.64
2019-02-18T06:15:05.810Z,6.57
2019-02-18T06:16:05.799Z,6.64
2019-02-18T06:17:05.784Z,6.56
2019-02-18T06:18:05.799Z,6.48
2019-02-18T06:19:05.767Z,6.51
2019-02-18T06:20:05.754Z,6.48
2019-02-18T06:21:05.765Z,6.51
2019-02-18T06:22:05.738Z,6.51
2019-02-18T06:23:05.807Z,6.41
2019-02-18T06:24:05.716Z,6.38
2019-02-18T06:25:05.704Z,6.52
2019-02-18T06:26:05.687Z,6.36
2019-02-18T06:27:05.679Z,6.52
2019-02-18T06:28:05.700Z,6.45
2019-02-18T06:29:05.664Z,6.39
2019-02-18T06:30:05.700Z,6.28
2019-02-18T06:31:05.643Z,6.20
2019-02-18T06:32:05.628Z,6.31
2019-02-18T06:33:05.624Z,6.26
2019-02-18T06:34:05.613Z,6.33
2019-02-18T06:35:05.602Z,6.39
2019-02-18T06:36:05.623Z,6.48
2019-02-18T06:37:05.573Z,6.41
2019-02-18T06:38:05.563Z,6.44
2019-02-18T06:39:05.552Z,6.44
2019-02-18T06:40:05.549Z,6.42
2019-02-18T06:41:05.539Z,6.39
2019-02-18T06:42:05.569Z,6.42
2019-02-18T06:43:05.518Z,6.30
2019-02-18T06:44:05.506Z,6.42
2019-02-18T06:45:05.491Z,6.45
2019-02-18T06:46:05.480Z,6.36
2019-02-18T06:47:05.475Z,6.41
2019-02-18T06:48:05.508Z,6.45
2019-02-18T06:49:05.464Z,6.48
2019-02-18T06:50:05.458Z,6.38
2019-02-18T06:51:05.427Z,6.51
2019-02-18T06:52:05.419Z,6.54
2019-02-18T06:53:05.440Z,6.49
2019-02-18T06:54:05.400Z,6.56
2019-02-18T06:55:05.389Z,6.49
2019-02-18T06:56:05.377Z,6.51
2019-02-18T06:57:05.360Z,6.57
2019-02-18T06:58:05.354Z,6.49
2019-02-18T06:59:05.372Z,6.51
2019-02-18T07:00:05.333Z,6.52
2019-02-18T07:01:05.327Z,6.49
2019-02-18T07:02:05.313Z,6.49
2019-02-18T07:03:05.304Z,6.57
2019-02-18T07:04:05.291Z,6.45
2019-02-18T07:05:05.307Z,6.49
2019-02-18T07:06:05.360Z,6.45
2019-02-18T07:07:05.261Z,6.41
2019-02-18T07:08:05.257Z,6.59
2019-02-18T07:09:05.235Z,6.54
2019-02-18T07:10:05.257Z,6.52
2019-02-18T07:11:05.211Z,6.56
2019-02-18T07:12:05.202Z,6.57
2019-02-18T07:13:05.203Z,6.52
2019-02-18T07:14:05.185Z,6.59
2019-02-18T07:15:05.178Z,6.63
2019-02-18T07:16:05.192Z,6.60
2019-02-18T07:17:05.162Z,6.66
2019-02-18T07:18:05.142Z,6.64
2019-02-18T07:19:05.131Z,6.62
2019-02-18T07:20:05.119Z,6.70
2019-02-18T07:21:05.137Z,6.69
2019-02-18T07:22:05.104Z,6.77
2019-02-18T07:23:05.085Z,6.75
2019-02-18T07:24:05.085Z,6.78
2019-02-18T07:25:05.118Z,6.79
2019-02-18T07:26:05.067Z,6.87
2019-02-18T07:27:05.066Z,6.87
2019-02-18T07:28:05.044Z,6.81
2019-02-18T07:29:05.022Z,6.85
2019-02-18T07:30:05.010Z,6.74
2019-02-18T07:31:05.028Z,6.69
2019-02-18T07:32:05.066Z,6.78
2019-02-18T07:33:04.982Z,6.78
2019-02-18T07:34:04.974Z,6.75
2019-02-18T07:35:04.957Z,6.75
2019-02-18T07:36:04.971Z,6.75
2019-02-18T07:37:04.942Z,6.78
2019-02-18T07:38:04.936Z,6.85
2019-02-18T07:39:04.926Z,6.88
2019-02-18T07:40:04.904Z,6.95
2019-02-18T07:41:04.915Z,6.93
2019-02-18T07:42:04.924Z,6.92
2019-02-18T07:43:04.865Z,6.81
2019-02-18T07:44:04.901Z,6.82
2019-02-18T07:45:04.861Z,6.88
2019-02-18T07:46:04.859Z,6.88
2019-02-18T07:47:04.836Z,6.81
2019-02-18T07:48:04.893Z,6.87
2019-02-18T07:49:04.803Z,6.97
2019-02-18T07:50:04.823Z,6.97
2019-02-18T07:51:04.786Z,7.05
2019-02-18T07:52:04.779Z,7.13
2019-02-18T07:53:04.763Z,7.07
2019-02-18T07:54:04.746Z,7.14
2019-02-18T07:55:04.742Z,7.23
2019-02-18T07:56:04.928Z,7.28
2019-02-18T07:57:04.769Z,7.31
2019-02-18T07:58:04.712Z,7.35
2019-02-18T07:59:04.701Z,7.40
2019-02-18T08:00:04.691Z,7.54
2019-02-18T08:01:04.678Z,7.61
2019-02-18T08:02:04.666Z,7.61
2019-02-18T08:03:04.678Z,7.66
2019-02-18T08:04:04.643Z,7.69
2019-02-18T08:05:04.653Z,7.79
2019-02-18T08:06:04.627Z,7.82
2019-02-18T08:07:04.608Z,7.90
2019-02-18T08:08:04.647Z,7.90
2019-02-18T08:09:04.600Z,8.03
2019-02-18T08:10:11.858Z,7.93
2019-02-18T08:11:05.571Z,8.00
2019-02-18T08:12:04.562Z,8.05
2019-02-18T08:13:04.568Z,8.05
2019-02-18T08:14:04.600Z,8.12
2019-02-18T08:15:04.526Z,8.13
2019-02-18T08:16:04.514Z,8.13
2019-02-18T08:17:04.509Z,8.12
2019-02-18T08:18:04.500Z,8.28
2019-02-18T08:19:04.513Z,8.27
2019-02-18T08:20:04.486Z,8.26
2019-02-18T08:21:04.461Z,8.30
2019-02-18T08:22:04.449Z,8.20
2019-02-18T08:23:04.462Z,8.30
2019-02-18T08:24:04.606Z,8.24
2019-02-18T08:25:04.456Z,8.33
2019-02-18T08:26:04.434Z,8.38
2019-02-18T08:27:04.400Z,8.41
2019-02-18T08:28:04.387Z,8.46
2019-02-18T08:29:04.382Z,8.53
2019-02-18T08:30:04.404Z,8.56
2019-02-18T08:31:04.359Z,8.64
2019-02-18T08:32:04.350Z,8.81
2019-02-18T08:33:04.335Z,8.70
2019-02-18T08:34:04.319Z,8.94
2019-02-18T08:35:04.318Z,9.10
2019-02-18T08:36:04.321Z,9.11
2019-02-18T08:37:04.311Z,9.26
2019-02-18T08:38:04.288Z,9.34
2019-02-18T08:39:04.267Z,9.43
2019-02-18T08:40:04.255Z,9.56
2019-02-18T08:41:04.285Z,9.66
2019-02-18T08:42:04.242Z,9.74
2019-02-18T08:43:04.232Z,9.89
2019-02-18T08:44:04.244Z,10.05
2019-02-18T08:45:04.214Z,10.17
2019-02-18T08:46:04.224Z,10.42
2019-02-18T08:47:04.184Z,10.72
2019-02-18T08:48:04.172Z,11.15
2019-02-18T08:49:04.168Z,12.29
2019-02-18T08:50:04.163Z,13.92
2019-02-18T08:51:04.218Z,15.51
2019-02-18T08:52:04.135Z,17.04
2019-02-18T08:53:04.123Z,18.20
2019-02-18T08:54:04.109Z,19.37
2019-02-18T08:55:04.104Z,20.24
2019-02-18T08:56:04.096Z,21.09
2019-02-18T08:57:04.104Z,21.98
2019-02-18T08:58:04.064Z,22.78
2019-02-18T08:59:04.077Z,23.40
2019-02-18T09:00:04.063Z,23.88
2019-02-18T09:01:04.040Z,23.80
2019-02-18T09:02:04.143Z,23.76
2019-02-18T09:03:04.021Z,23.80
2019-02-18T09:04:04.048Z,24.18
2019-02-18T09:05:04.021Z,24.73
2019-02-18T09:06:04.012Z,25.33
2019-02-18T09:07:03.974Z,25.90
2019-02-18T09:08:03.983Z,26.19
2019-02-18T09:09:04.016Z,26.68
2019-02-18T09:10:03.944Z,27.12
2019-02-18T09:11:03.933Z,27.22
2019-02-18T09:12:03.932Z,27.55
2019-02-18T09:13:03.918Z,27.96
2019-02-18T09:14:03.901Z,28.17
2019-02-18T09:15:03.928Z,28.49
2019-02-18T09:16:03.882Z,28.79
2019-02-18T09:17:03.865Z,29.05
2019-02-18T09:18:03.853Z,29.13
2019-02-18T09:19:03.856Z,29.34
2019-02-18T09:20:03.833Z,29.38
2019-02-18T09:21:03.895Z,29.45
2019-02-18T09:22:03.817Z,29.66
2019-02-18T09:23:03.824Z,29.79
2019-02-18T09:24:03.798Z,29.79
2019-02-18T09:25:03.783Z,29.57
2019-02-18T09:26:03.804Z,29.23
2019-02-18T09:27:03.807Z,28.79
2019-02-18T09:28:03.756Z,28.33
2019-02-18T09:29:03.743Z,28.07
2019-02-18T09:30:03.730Z,27.60
2019-02-18T09:31:03.719Z,27.12
2019-02-18T09:32:03.925Z,26.65
2019-02-18T09:33:03.707Z,26.13
2019-02-18T09:34:03.697Z,25.72
2019-02-18T09:35:03.686Z,24.96
2019-02-18T09:36:03.674Z,24.35
2019-02-18T09:37:03.657Z,24.14
2019-02-18T09:38:03.677Z,24.16
2019-02-18T09:39:03.640Z,24.38
2019-02-18T09:40:03.626Z,24.16
2019-02-18T09:41:03.624Z,23.63
2019-02-18T09:42:03.612Z,22.88
2019-02-18T09:43:03.617Z,22.13
2019-02-18T09:44:03.608Z,21.51
2019-02-18T09:45:03.582Z,21.43
2019-02-18T09:46:03.570Z,21.50
2019-02-18T09:47:03.596Z,21.51
2019-02-18T09:48:03.564Z,21.73
2019-02-18T09:49:03.535Z,21.33
2019-02-18T09:50:03.572Z,20.63
2019-02-18T09:51:03.510Z,20.16
2019-02-18T09:52:03.503Z,19.94
2019-02-18T09:53:03.533Z,20.18
2019-02-18T09:54:03.486Z,20.70
2019-02-18T09:55:03.514Z,21.58
2019-02-18T09:56:03.465Z,22.36
2019-02-18T09:57:03.450Z,23.40
2019-02-18T09:58:03.442Z,23.88
2019-02-18T09:59:03.436Z,24.28
2019-02-18T10:00:03.423Z,24.74
2019-02-18T10:01:03.430Z,25.13
2019-02-18T10:02:03.401Z,25.88
2019-02-18T10:03:03.396Z,26.59
2019-02-18T10:04:03.375Z,27.21
2019-02-18T10:05:03.404Z,27.59
2019-02-18T10:06:03.432Z,28.17
2019-02-18T10:07:03.365Z,28.35
2019-02-18T10:08:03.343Z,28.41
2019-02-18T10:09:03.323Z,28.39
2019-02-18T10:10:04.769Z,28.22
2019-02-18T10:11:03.302Z,27.68
2019-02-18T10:12:03.313Z,27.15
2019-02-18T10:13:03.322Z,26.65
2019-02-18T10:14:03.309Z,25.85
2019-02-18T10:15:03.261Z,25.03
2019-02-18T10:16:03.253Z,24.78
2019-02-18T10:17:03.255Z,24.54
2019-02-18T10:18:03.241Z,24.26
2019-02-18T10:19:03.266Z,23.68
2019-02-18T10:20:03.216Z,23.32
2019-02-18T10:21:03.221Z,22.99
2019-02-18T10:22:03.204Z,22.45
2019-02-18T10:23:03.176Z,22.14
2019-02-18T10:24:03.166Z,21.72
2019-02-18T10:25:03.190Z,21.36
2019-02-18T10:26:03.169Z,21.02
2019-02-18T10:27:03.148Z,20.69
2019-02-18T10:28:03.132Z,20.32
2019-02-18T10:29:03.115Z,20.19
2019-02-18T10:30:03.114Z,19.82
2019-02-18T10:31:03.131Z,19.58
2019-02-18T10:32:03.090Z,19.58
2019-02-18T10:33:03.079Z,19.47
2019-02-18T10:34:03.063Z,19.39
2019-02-18T10:35:03.093Z,19.34
2019-02-18T10:36:03.069Z,19.36
2019-02-18T10:37:03.092Z,19.33
2019-02-18T10:38:03.048Z,19.36
2019-02-18T10:39:03.014Z,19.33
2019-02-18T10:40:03.005Z,19.33
2019-02-18T10:41:06.863Z,19.37
2019-02-18T10:42:02.985Z,19.37
2019-02-18T10:43:02.969Z,19.47
2019-02-18T10:44:02.962Z,19.49
2019-02-18T10:45:02.955Z,19.58
2019-02-18T10:46:02.998Z,19.54
2019-02-18T10:47:02.928Z,19.48
2019-02-18T10:48:02.916Z,19.49
2019-02-18T10:49:02.908Z,19.44
2019-02-18T10:50:02.900Z,19.39
2019-02-18T10:51:02.893Z,19.44
2019-02-18T10:52:02.948Z,19.40
2019-02-18T10:53:02.868Z,19.39
2019-02-18T10:54:02.864Z,19.48
2019-02-18T10:55:02.843Z,19.51
2019-02-18T10:56:02.831Z,19.58
2019-02-18T10:57:02.841Z,19.44
2019-02-18T10:58:02.841Z,19.44
2019-02-18T10:59:02.825Z,19.27
2019-02-18T11:00:02.798Z,19.24
2019-02-18T11:01:02.775Z,19.26
2019-02-18T11:02:02.799Z,19.18
2019-02-18T11:03:02.793Z,19.19
2019-02-18T11:04:02.750Z,19.08
2019-02-18T11:05:02.738Z,18.98
2019-02-18T11:06:02.723Z,18.96
2019-02-18T11:07:02.739Z,18.88
2019-02-18T11:08:02.705Z,18.88
2019-02-18T11:09:02.733Z,18.74
2019-02-18T11:10:02.688Z,18.63
2019-02-18T11:11:02.677Z,18.60
2019-02-18T11:12:02.666Z,18.49
2019-02-18T11:13:02.647Z,18.47
2019-02-18T11:14:02.686Z,18.37
2019-02-18T11:15:02.632Z,18.29
2019-02-18T11:16:02.617Z,18.23
2019-02-18T11:17:02.610Z,18.28
2019-02-18T11:18:02.605Z,18.19
2019-02-18T11:19:02.584Z,18.16
2019-02-18T11:20:02.606Z,18.10
2019-02-18T11:21:02.580Z,18.00
2019-02-18T11:22:02.559Z,18.05
2019-02-18T11:23:02.548Z,18.11
2019-02-18T11:24:02.538Z,17.83
2019-02-18T11:25:02.525Z,17.87
2019-02-18T11:26:02.539Z,17.86
2019-02-18T11:27:02.505Z,17.79
2019-02-18T11:28:02.489Z,17.85
2019-02-18T11:29:02.490Z,17.79
2019-02-18T11:30:02.481Z,17.82
2019-02-18T11:31:02.496Z,17.80
2019-02-18T11:32:02.455Z,17.79
2019-02-18T11:33:02.438Z,17.83
2019-02-18T11:34:02.426Z,17.83
2019-02-18T11:35:02.458Z,17.80
2019-02-18T11:36:02.443Z,17.85
2019-02-18T11:37:02.396Z,17.94
2019-02-18T11:38:02.386Z,17.97
2019-02-18T11:39:02.389Z,18.01
2019-02-18T11:40:02.367Z,18.01
2019-02-18T11:41:02.361Z,18.08
2019-02-18T11:42:02.381Z,17.98
2019-02-18T11:43:02.367Z,18.03
2019-02-18T11:44:02.364Z,18.04
2019-02-18T11:45:02.320Z,18.03
2019-02-18T11:46:02.311Z,18.15
2019-02-18T11:47:02.292Z,18.22
2019-02-18T11:48:02.317Z,18.13
2019-02-18T11:49:02.490Z,18.20
2019-02-18T11:50:02.268Z,18.18
2019-02-18T11:51:02.294Z,18.19
2019-02-18T11:52:02.238Z,18.13
2019-02-18T11:53:02.230Z,18.16
2019-02-18T11:54:02.243Z,18.15
2019-02-18T11:55:02.251Z,18.16
2019-02-18T11:56:02.212Z,18.05
2019-02-18T11:57:02.330Z,18.05
2019-02-18T11:58:02.174Z,18.10
2019-02-18T11:59:02.194Z,18.15
2019-02-18T12:00:02.151Z,18.18
2019-02-18T12:01:02.147Z,18.22
2019-02-18T12:02:02.133Z,18.22
2019-02-18T12:03:06.820Z,18.16
2019-02-18T12:04:03.119Z,18.23
2019-02-18T12:05:02.092Z,18.16
2019-02-18T12:06:02.140Z,18.23
2019-02-18T12:07:03.041Z,18.22
2019-02-18T12:08:02.068Z,18.16
2019-02-18T12:09:02.114Z,18.08
2019-02-18T12:10:02.047Z,18.10
2019-02-18T12:11:02.060Z,18.07
2019-02-18T12:12:02.050Z,18.05
2019-02-18T12:13:02.046Z,18.00
2019-02-18T12:14:02.007Z,18.05
2019-02-18T12:15:02.029Z,18.01
2019-02-18T12:16:01.993Z,18.05
2019-02-18T12:17:01.985Z,17.97
2019-02-18T12:18:01.991Z,17.98
2019-02-18T12:19:01.984Z,18.01
2019-02-18T12:20:01.938Z,17.97
2019-02-18T12:21:01.930Z,17.97
2019-02-18T12:22:01.967Z,17.86
2019-02-18T12:23:01.932Z,17.98
2019-02-18T12:24:01.890Z,17.76
2019-02-18T12:25:01.887Z,17.79
2019-02-18T12:26:01.877Z,17.68
2019-02-18T12:27:01.867Z,17.59
2019-02-18T12:28:01.853Z,17.63
2019-02-18T12:29:01.863Z,17.57
2019-02-18T12:30:01.895Z,17.49
2019-02-18T12:31:01.836Z,17.54
2019-02-18T12:32:01.924Z,17.49
2019-02-18T12:33:01.805Z,17.51
2019-02-18T12:34:01.791Z,17.52
2019-02-18T12:35:01.779Z,17.52
2019-02-18T12:36:01.767Z,17.48
2019-02-18T12:37:01.780Z,17.56
2019-02-18T12:38:01.744Z,17.57
2019-02-18T12:39:01.781Z,17.54
2019-02-18T12:40:01.730Z,17.51
2019-02-18T12:41:01.709Z,17.52
2019-02-18T12:42:01.714Z,17.56
2019-02-18T12:43:01.722Z,17.59
2019-02-18T12:44:01.679Z,17.57
2019-02-18T12:45:01.672Z,17.48
2019-02-18T12:46:01.692Z,17.34
2019-02-18T12:47:01.651Z,17.20
2019-02-18T12:48:01.639Z,17.14
2019-02-18T12:49:01.624Z,17.09
2019-02-18T12:50:01.625Z,17.12
2019-02-18T12:51:01.599Z,16.89
2019-02-18T12:52:01.619Z,17.04
2019-02-18T12:53:01.589Z,16.94
2019-02-18T12:54:04.992Z,16.84
2019-02-18T12:55:01.623Z,16.97
2019-02-18T12:56:01.551Z,17.04
2019-02-18T12:57:01.541Z,16.99
2019-02-18T12:58:01.532Z,17.04
2019-02-18T12:59:01.532Z,17.06
2019-02-18T13:00:01.634Z,17.11
2019-02-18T13:01:01.514Z,17.16
2019-02-18T13:02:01.489Z,17.27
2019-02-18T13:03:01.470Z,17.31
2019-02-18T13:04:01.466Z,17.31
2019-02-18T13:05:01.484Z,17.29
2019-02-18T13:06:01.447Z,17.22
2019-02-18T13:07:01.485Z,17.26
2019-02-18T13:08:02.827Z,17.34
2019-02-18T13:09:01.451Z,17.30